createdAt,value
2018-02-27T05:31:38.279Z,-11.20
2018-02-27T05:34:06.522Z,-11.20
2018-02-27T05:36:35.544Z,-11.30
2018-02-27T05:39:03.887Z,-11.30
2018-02-27T05:41:32.093Z,-11.40
2018-02-27T05:44:00.314Z,-11.30
2018-02-27T05:46:28.558Z,-11.30
2018-02-27T05:48:56.891Z,-11.30
2018-02-27T05:51:25.170Z,-11.40
2018-02-27T05:53:53.348Z,-11.50
2018-02-27T05:56:22.361Z,-11.50
2018-02-27T05:58:51.349Z,-11.40
2018-02-27T06:01:20.360Z,-11.50
2018-02-27T06:03:48.613Z,-11.50
2018-02-27T06:06:18.525Z,-11.50
2018-02-27T06:08:47.539Z,-11.50
2018-02-27T06:11:16.513Z,-11.60
2018-02-27T06:13:45.524Z,-11.60
2018-02-27T06:16:13.751Z,-11.60
2018-02-27T06:18:41.994Z,-11.60
2018-02-27T06:21:10.224Z,-11.70
2018-02-27T06:23:38.449Z,-11.60
2018-02-27T06:26:06.703Z,-11.60
2018-02-27T06:28:35.717Z,-11.40
2018-02-27T06:31:03.933Z,-11.50
2018-02-27T06:33:32.180Z,-11.40
2018-02-27T06:36:00.398Z,-11.20
2018-02-27T06:38:28.642Z,-11.20
2018-02-27T06:40:56.895Z,-11.10
2018-02-27T06:43:25.128Z,-10.90
2018-02-27T06:45:53.372Z,-10.80
2018-02-27T06:48:21.620Z,-10.60
2018-02-27T06:50:49.853Z,-10.50
2018-02-27T06:53:18.076Z,-10.30
2018-02-27T06:55:46.408Z,-10.30
2018-02-27T06:58:14.625Z,-10.20
2018-02-27T07:00:42.844Z,-10.30
2018-02-27T07:03:11.081Z,-10.30
2018-02-27T07:05:39.296Z,-10.30
2018-02-27T07:08:07.556Z,-10.30
2018-02-27T07:10:35.781Z,-10.20
2018-02-27T07:13:04.242Z,-10.00
2018-02-27T07:15:32.485Z,-9.80
2018-02-27T07:18:00.693Z,-9.70
2018-02-27T07:20:28.971Z,-9.70
2018-02-27T07:22:57.170Z,-9.70
2018-02-27T07:25:26.173Z,-9.60
2018-02-27T07:27:54.390Z,-9.60
2018-02-27T15:16:25.384Z,-6.40
2018-02-27T15:18:53.628Z,-6.30
2018-02-27T15:21:22.020Z,-6.40
2018-02-27T15:23:50.270Z,-6.30
2018-02-27T15:26:18.493Z,-6.50
2018-02-27T15:28:47.469Z,-6.80
2018-02-27T15:31:15.874Z,-6.80
2018-02-27T15:33:44.056Z,-6.80
2018-02-27T15:36:13.149Z,-6.90
2018-02-27T15:38:41.369Z,-6.90
2018-02-27T15:41:10.553Z,-7.00
2018-02-27T15:43:39.110Z,-7.00
2018-02-27T15:46:08.388Z,-6.80
2018-02-27T15:48:36.603Z,-6.80
2018-02-27T15:51:04.957Z,-6.80
2018-02-27T15:53:33.138Z,-6.80
2018-02-27T15:56:02.188Z,-6.90
2018-02-27T15:58:30.415Z,-6.90
2018-02-27T16:00:59.429Z,-6.90
2018-02-27T16:03:27.774Z,-6.90
2018-02-27T16:05:56.256Z,-6.90
2018-02-27T16:08:24.509Z,-7.00
2018-02-27T16:10:52.915Z,-6.90
2018-02-27T16:13:21.134Z,-7.00
2018-02-27T16:15:50.365Z,-7.00
2018-02-27T16:18:18.672Z,-7.00
2018-02-27T16:20:46.886Z,-7.00
2018-02-27T16:23:15.141Z,-7.10
2018-02-27T16:25:43.394Z,-7.20
2018-02-27T16:28:12.378Z,-7.40
2018-02-27T16:30:41.225Z,-7.40
2018-02-27T16:33:09.454Z,-7.50
2018-02-27T16:35:37.727Z,-7.50
2018-02-27T16:38:06.110Z,-7.60
2018-02-27T16:40:34.388Z,-7.70
2018-02-27T16:43:02.618Z,-7.70
2018-02-27T16:45:30.940Z,-7.80
2018-02-27T16:47:59.143Z,-7.90
2018-02-27T16:50:27.409Z,-7.80
2018-02-27T16:52:56.390Z,-8.00
2018-02-27T16:55:25.372Z,-8.00
2018-02-27T16:57:53.960Z,-8.00
2018-02-27T17:00:22.186Z,-8.00
2018-02-27T17:02:51.213Z,-8.20
2018-02-27T17:05:20.249Z,-8.20
2018-02-27T17:07:48.465Z,-8.20
2018-02-27T17:10:17.523Z,-8.20
2018-02-27T17:12:45.771Z,-8.20
2018-02-27T17:15:14.561Z,-8.10
2018-02-27T17:17:42.805Z,-8.10
2018-02-27T17:20:11.041Z,-8.20
2018-02-27T17:22:39.261Z,-8.20
2018-02-27T17:25:07.501Z,-8.20
2018-02-27T17:27:35.725Z,-8.30
2018-02-27T17:30:04.020Z,-8.40
2018-02-27T17:32:32.535Z,-8.40
2018-02-27T17:35:00.768Z,-8.50
2018-02-27T17:37:29.358Z,-8.50
2018-02-27T17:39:57.573Z,-8.60
2018-02-27T17:42:25.913Z,-8.60
2018-02-27T17:44:54.130Z,-8.80
2018-02-27T17:47:22.344Z,-8.80
2018-02-27T17:49:50.573Z,-9.00
2018-02-27T17:52:18.797Z,-8.90
2018-02-27T17:54:47.033Z,-8.80
2018-02-27T17:57:17.257Z,-8.90
2018-02-27T17:59:45.936Z,-8.90
2018-02-27T18:02:15.029Z,-8.80
2018-02-27T18:04:46.379Z,-8.80
2018-02-27T18:07:14.824Z,-8.80
2018-02-27T18:09:43.845Z,-9.00
2018-02-27T18:12:12.070Z,-9.00
2018-02-27T18:14:42.110Z,-9.00
2018-02-27T18:17:10.593Z,-9.10
2018-02-27T18:19:40.525Z,-9.10
2018-02-27T18:22:08.803Z,-9.00
2018-02-27T18:24:37.813Z,-8.90
2018-02-27T18:27:07.061Z,-9.00
2018-02-27T18:29:35.565Z,-9.00
2018-02-27T18:32:05.720Z,-9.00
2018-02-27T18:34:34.710Z,-9.10
2018-02-27T18:37:03.156Z,-9.10
2018-02-27T18:39:31.351Z,-9.20
2018-02-27T18:41:59.641Z,-9.10
2018-02-27T18:44:28.018Z,-9.10
2018-02-27T18:46:56.367Z,-9.10
2018-02-27T18:49:25.612Z,-9.20
2018-02-27T18:51:53.865Z,-9.20
2018-02-27T18:54:22.081Z,-9.20
2018-02-27T18:56:50.661Z,-9.30
2018-02-27T18:59:19.136Z,-9.30
2018-02-27T19:01:47.586Z,-9.30
2018-02-27T19:04:16.605Z,-9.40
2018-02-27T19:06:44.841Z,-9.40
2018-02-27T19:09:13.929Z,-9.40
2018-02-27T19:11:42.149Z,-9.40
2018-02-27T19:14:10.392Z,-9.40
2018-02-27T19:16:39.386Z,-9.40
2018-02-27T19:19:08.409Z,-9.20
2018-02-27T19:21:36.746Z,-9.20
2018-02-27T19:24:04.932Z,-9.20
2018-02-27T19:26:33.948Z,-9.30
2018-02-27T19:29:02.168Z,-9.30
2018-02-27T19:31:30.569Z,-9.30
2018-02-27T19:33:58.870Z,-9.30
2018-02-27T19:36:27.957Z,-9.30
2018-02-27T19:38:56.946Z,-9.30
2018-02-27T19:41:25.965Z,-9.20
2018-02-27T19:43:54.214Z,-9.20
2018-02-27T19:46:23.302Z,-9.20
2018-02-27T19:48:51.638Z,-9.30
2018-02-27T19:51:19.846Z,-9.20
2018-02-27T19:53:48.089Z,-9.20
2018-02-27T19:56:16.317Z,-9.20
2018-02-27T19:58:45.439Z,-9.30
2018-02-27T20:01:14.326Z,-9.30
2018-02-27T20:03:42.642Z,-9.30
2018-02-27T20:06:10.881Z,-9.30
2018-02-27T20:08:39.885Z,-9.40
2018-02-27T20:11:08.307Z,-9.50
2018-02-27T20:13:36.599Z,-9.60
2018-02-27T20:16:04.805Z,-9.60
2018-02-27T20:18:33.053Z,-9.60
2018-02-27T20:21:02.062Z,-9.40
2018-02-27T20:23:36.661Z,-9.40
2018-02-27T20:26:04.918Z,-9.50
2018-02-27T20:28:38.745Z,-9.50
2018-02-27T20:33:28.812Z,-9.60
2018-02-27T20:35:57.137Z,-9.50
2018-02-27T20:38:31.143Z,-9.60
2018-02-27T20:40:59.337Z,-9.70
2018-02-27T20:43:28.353Z,-10.00
2018-02-27T20:45:56.691Z,-10.00
2018-02-27T20:48:25.772Z,-10.20
2018-02-27T20:50:54.038Z,-10.20
2018-02-27T20:53:22.341Z,-10.40
2018-02-27T20:55:50.615Z,-10.40
2018-02-27T20:58:18.837Z,-10.50
2018-02-27T21:00:47.062Z,-10.40
2018-02-27T21:03:15.349Z,-10.30
2018-02-27T21:05:43.603Z,-10.20
2018-02-27T21:08:11.901Z,-10.20
2018-02-27T21:10:40.134Z,-10.10
2018-02-27T21:13:08.369Z,-10.00
2018-02-27T21:15:37.384Z,-10.10
2018-02-27T21:18:05.637Z,-10.10
2018-02-27T21:20:33.905Z,-10.00
2018-02-27T21:23:02.926Z,-10.00
2018-02-27T21:25:31.269Z,-10.00
2018-02-27T21:27:59.461Z,-10.10
2018-02-27T21:30:28.525Z,-10.40
2018-02-27T21:32:56.733Z,-10.40
2018-02-27T21:35:25.725Z,-10.60
2018-02-27T21:37:54.989Z,-10.60
2018-02-27T21:40:23.245Z,-10.80
2018-02-27T21:42:51.486Z,-10.90
2018-02-27T21:45:19.837Z,-11.00
2018-02-27T21:47:48.050Z,-10.90
2018-02-27T21:50:16.288Z,-10.70
2018-02-27T21:52:44.552Z,-10.70
2018-02-27T21:55:12.779Z,-10.50
2018-02-27T21:57:41.018Z,-10.50
2018-02-27T22:00:09.333Z,-10.40
2018-02-27T22:02:37.623Z,-10.30
2018-02-27T22:05:05.837Z,-10.40
2018-02-27T22:07:34.061Z,-10.40
2018-02-27T22:10:02.290Z,-10.30
2018-02-27T22:12:30.546Z,-10.30
2018-02-27T22:14:58.772Z,-10.30
2018-02-27T22:17:27.128Z,-10.40
2018-02-27T22:19:55.365Z,-10.60
2018-02-27T22:22:23.682Z,-10.70
2018-02-27T22:24:52.297Z,-10.90
2018-02-27T22:27:20.567Z,-10.80
2018-02-27T22:29:48.794Z,-10.80
2018-02-27T22:32:17.033Z,-10.50
2018-02-27T22:34:45.341Z,-10.30
2018-02-27T22:37:13.597Z,-10.20
2018-02-27T22:39:43.931Z,-10.20
2018-02-27T22:42:12.864Z,-10.20
2018-02-27T22:44:41.057Z,-10.30
2018-02-27T22:47:10.861Z,-10.60
2018-02-27T22:49:39.877Z,-10.70
2018-02-27T22:52:08.106Z,-10.70
2018-02-27T22:54:36.361Z,-10.60
2018-02-27T22:57:05.391Z,-10.50
2018-02-27T22:59:33.620Z,-10.50
2018-02-27T23:02:01.946Z,-10.50
2018-02-27T23:04:30.258Z,-10.50
2018-02-27T23:06:58.489Z,-10.50
2018-02-27T23:09:26.738Z,-10.70
2018-02-27T23:11:54.961Z,-10.70
2018-02-27T23:14:23.981Z,-10.90
2018-02-27T23:16:52.229Z,-11.00
2018-02-27T23:19:21.258Z,-11.20
2018-02-27T23:21:49.521Z,-11.20
2018-02-27T23:24:18.666Z,-11.30
2018-02-27T23:26:46.952Z,-11.30
2018-02-27T23:29:15.552Z,-11.30
2018-02-27T23:31:45.854Z,-10.90
2018-02-27T23:34:16.676Z,-11.00
2018-02-27T23:36:44.899Z,-10.90
2018-02-27T23:39:14.049Z,-10.80
2018-02-27T23:41:42.300Z,-10.80
2018-02-27T23:44:10.555Z,-10.90
